sensor_id;sensor_type;location;lat;lon;timestamp;pressure;altitude;pressure_sealevel;temperature;humidity
47706;BME280;33471;52.104;1.318;2023-03-13T00:01:35;99248.70;;;10.50;69.39
47706;BME280;33471;52.104;1.318;2023-03-13T00:04:04;99237.55;;;9.48;71.54
47706;BME280;33471;52.104;1.318;2023-03-13T00:06:33;99234.63;;;10.03;69.26
47706;BME280;33471;52.104;1.318;2023-03-13T00:09:02;99233.80;;;10.15;71.06
47706;BME280;33471;52.104;1.318;2023-03-13T00:11:30;99234.64;;;10.40;70.03
47706;BME280;33471;52.104;1.318;2023-03-13T00:13:59;99235.39;;;10.02;70.37
47706;BME280;33471;52.104;1.318;2023-03-13T00:16:27;99223.92;;;10.23;70.20
47706;BME280;33471;52.104;1.318;2023-03-13T00:18:56;99224.45;;;10.46;70.76
47706;BME280;33471;52.104;1.318;2023-03-13T00:21:25;99225.68;;;10.54;70.52
47706;BME280;33471;52.104;1.318;2023-03-13T00:23:53;99225.91;;;10.55;71.19
47706;BME280;33471;52.104;1.318;2023-03-13T00:26:22;99224.08;;;9.74;71.86
47706;BME280;33471;52.104;1.318;2023-03-13T00:28:51;99196.57;;;10.18;70.03
47706;BME280;33471;52.104;1.318;2023-03-13T00:31:21;99189.76;;;10.64;69.51
47706;BME280;33471;52.104;1.318;2023-03-13T00:33:50;99182.64;;;10.98;68.69
47706;BME280;33471;52.104;1.318;2023-03-13T00:36:19;99179.12;;;10.87;69.10
47706;BME280;33471;52.104;1.318;2023-03-13T00:38:46;99175.82;;;11.19;68.16
47706;BME280;33471;52.104;1.318;2023-03-13T00:41:15;99172.10;;;11.14;67.87
47706;BME280;33471;52.104;1.318;2023-03-13T00:43:44;99160.22;;;10.81;68.94
47706;BME280;33471;52.104;1.318;2023-03-13T00:46:13;99154.15;;;11.26;67.63
47706;BME280;33471;52.104;1.318;2023-03-13T00:48:41;99150.59;;;10.92;68.37
47706;BME280;33471;52.104;1.318;2023-03-13T00:51:09;99152.38;;;10.37;71.42
47706;BME280;33471;52.104;1.318;2023-03-13T00:53:36;99135.00;;;10.59;71.20
47706;BME280;33471;52.104;1.318;2023-03-13T00:56:06;99137.53;;;10.73;68.82
47706;BME280;33471;52.104;1.318;2023-03-13T00:58:35;99135.51;;;9.95;71.51
47706;BME280;33471;52.104;1.318;2023-03-13T01:01:07;99102.55;;;11.03;68.27
47706;BME280;33471;52.104;1.318;2023-03-13T01:03:35;99097.76;;;11.34;65.94
47706;BME280;33471;52.104;1.318;2023-03-13T01:06:05;99095.76;;;11.86;64.97
47706;BME280;33471;52.104;1.318;2023-03-13T01:08:32;99091.74;;;11.25;68.73
47706;BME280;33471;52.104;1.318;2023-03-13T01:10:59;99083.91;;;10.73;69.22
47706;BME280;33471;52.104;1.318;2023-03-13T01:13:27;99076.14;;;11.02;68.54
47706;BME280;33471;52.104;1.318;2023-03-13T01:15:55;99077.64;;;10.86;69.61
47706;BME280;33471;52.104;1.318;2023-03-13T01:18:22;99075.32;;;11.43;67.17
47706;BME280;33471;52.104;1.318;2023-03-13T01:20:49;99071.44;;;11.31;67.80
47706;BME280;33471;52.104;1.318;2023-03-13T01:23:16;99073.22;;;11.84;65.45
47706;BME280;33471;52.104;1.318;2023-03-13T01:25:43;99070.24;;;11.34;67.48
47706;BME280;33471;52.104;1.318;2023-03-13T01:28:10;99080.17;;;11.00;67.16
47706;BME280;33471;52.104;1.318;2023-03-13T01:30:37;99071.39;;;10.32;71.10
47706;BME280;33471;52.104;1.318;2023-03-13T01:33:04;99076.78;;;10.67;68.92
47706;BME280;33471;52.104;1.318;2023-03-13T01:35:31;99080.23;;;11.13;68.94
47706;BME280;33471;52.104;1.318;2023-03-13T01:37:58;99075.87;;;10.06;72.14
47706;BME280;33471;52.104;1.318;2023-03-13T01:40:26;99075.47;;;10.74;70.53
47706;BME280;33471;52.104;1.318;2023-03-13T01:42:55;99072.97;;;11.07;69.79
47706;BME280;33471;52.104;1.318;2023-03-13T01:45:59;99073.08;;;11.19;71.73
47706;BME280;33471;52.104;1.318;2023-03-13T01:48:32;99075.58;;;10.82;70.35
47706;BME280;33471;52.104;1.318;2023-03-13T01:51:05;99062.78;;;11.67;66.74
47706;BME280;33471;52.104;1.318;2023-03-13T01:53:34;99048.15;;;11.38;66.93
47706;BME280;33471;52.104;1.318;2023-03-13T01:56:06;99058.93;;;10.75;68.68
47706;BME280;33471;52.104;1.318;2023-03-13T01:58:35;99052.47;;;10.74;70.22
47706;BME280;33471;52.104;1.318;2023-03-13T02:01:03;99056.73;;;10.76;69.39
47706;BME280;33471;52.104;1.318;2023-03-13T02:03:31;99050.95;;;11.20;69.38
47706;BME280;33471;52.104;1.318;2023-03-13T02:05:59;99056.20;;;10.70;70.87
47706;BME280;33471;52.104;1.318;2023-03-13T02:08:31;99050.70;;;11.38;68.42
47706;BME280;33471;52.104;1.318;2023-03-13T02:11:06;99045.87;;;10.49;69.91
47706;BME280;33471;52.104;1.318;2023-03-13T02:13:36;99055.05;;;10.25;71.26
47706;BME280;33471;52.104;1.318;2023-03-13T02:16:05;99041.93;;;10.57;70.10
47706;BME280;33471;52.104;1.318;2023-03-13T02:18:33;99042.38;;;10.86;71.14
47706;BME280;33471;52.104;1.318;2023-03-13T02:21:09;99040.54;;;11.02;69.98
47706;BME280;33471;52.104;1.318;2023-03-13T02:23:43;99036.36;;;11.03;70.95
47706;BME280;33471;52.104;1.318;2023-03-13T02:26:15;99024.65;;;11.37;68.50
47706;BME280;33471;52.104;1.318;2023-03-13T02:28:42;99023.57;;;11.58;66.78
47706;BME280;33471;52.104;1.318;2023-03-13T02:31:09;99022.48;;;11.17;67.30
47706;BME280;33471;52.104;1.318;2023-03-13T02:33:39;99013.42;;;11.53;67.66
47706;BME280;33471;52.104;1.318;2023-03-13T02:36:07;99004.30;;;11.34;67.25
47706;BME280;33471;52.104;1.318;2023-03-13T02:38:39;98997.37;;;10.98;68.22
47706;BME280;33471;52.104;1.318;2023-03-13T02:41:10;98993.14;;;11.21;69.13
47706;BME280;33471;52.104;1.318;2023-03-13T02:43:39;98992.69;;;11.16;69.01
47706;BME280;33471;52.104;1.318;2023-03-13T02:46:08;98992.53;;;10.73;70.63
47706;BME280;33471;52.104;1.318;2023-03-13T02:48:38;98984.54;;;10.42;72.29
47706;BME280;33471;52.104;1.318;2023-03-13T02:51:11;98986.75;;;10.49;70.95
47706;BME280;33471;52.104;1.318;2023-03-13T02:53:41;98988.84;;;11.17;69.54
47706;BME280;33471;52.104;1.318;2023-03-13T02:56:10;98982.37;;;10.68;70.17
47706;BME280;33471;52.104;1.318;2023-03-13T02:58:39;98992.76;;;10.90;69.68
47706;BME280;33471;52.104;1.318;2023-03-13T03:01:06;98984.01;;;10.56;69.71
47706;BME280;33471;52.104;1.318;2023-03-13T03:03:34;98973.64;;;11.55;68.16
47706;BME280;33471;52.104;1.318;2023-03-13T03:06:04;98980.34;;;11.46;68.09
47706;BME280;33471;52.104;1.318;2023-03-13T03:08:32;98982.28;;;11.10;69.80
47706;BME280;33471;52.104;1.318;2023-03-13T03:11:00;98975.94;;;10.38;71.11
47706;BME280;33471;52.104;1.318;2023-03-13T03:13:27;98978.10;;;10.41;72.86
47706;BME280;33471;52.104;1.318;2023-03-13T03:15:54;98966.02;;;10.36;73.66
47706;BME280;33471;52.104;1.318;2023-03-13T03:18:21;98962.81;;;10.56;70.95
47706;BME280;33471;52.104;1.318;2023-03-13T03:20:49;98953.29;;;10.58;71.63
47706;BME280;33471;52.104;1.318;2023-03-13T03:23:15;98944.52;;;11.11;69.54
47706;BME280;33471;52.104;1.318;2023-03-13T03:25:42;98940.76;;;10.37;74.45
47706;BME280;33471;52.104;1.318;2023-03-13T03:28:10;98937.91;;;10.36;73.77
47706;BME280;33471;52.104;1.318;2023-03-13T03:30:37;98928.28;;;10.96;70.51
47706;BME280;33471;52.104;1.318;2023-03-13T03:33:04;98935.39;;;10.30;73.40
47706;BME280;33471;52.104;1.318;2023-03-13T03:35:32;98931.06;;;10.05;72.65
47706;BME280;33471;52.104;1.318;2023-03-13T03:37:59;98927.85;;;10.56;71.66
47706;BME280;33471;52.104;1.318;2023-03-13T03:40:26;98913.94;;;10.55;73.23
47706;BME280;33471;52.104;1.318;2023-03-13T03:42:53;98908.67;;;10.79;72.11
47706;BME280;33471;52.104;1.318;2023-03-13T03:45:20;98904.70;;;10.86;69.87
47706;BME280;33471;52.104;1.318;2023-03-13T03:47:47;98893.13;;;11.33;67.81
47706;BME280;33471;52.104;1.318;2023-03-13T03:50:14;98890.23;;;11.23;69.02
47706;BME280;33471;52.104;1.318;2023-03-13T03:52:41;98896.25;;;11.48;68.38
47706;BME280;33471;52.104;1.318;2023-03-13T03:55:09;98883.68;;;10.47;69.52
47706;BME280;33471;52.104;1.318;2023-03-13T03:57:36;98883.86;;;10.76;69.97
47706;BME280;33471;52.104;1.318;2023-03-13T04:00:04;98886.17;;;10.64;68.94
47706;BME280;33471;52.104;1.318;2023-03-13T04:02:32;98887.15;;;11.13;69.17
47706;BME280;33471;52.104;1.318;2023-03-13T04:05:00;98880.59;;;11.61;67.06
47706;BME280;33471;52.104;1.318;2023-03-13T04:07:27;98876.52;;;11.14;70.33
47706;BME280;33471;52.104;1.318;2023-03-13T04:09:55;98868.37;;;10.84;70.19
47706;BME280;33471;52.104;1.318;2023-03-13T04:12:22;98872.91;;;10.40;72.06
47706;BME280;33471;52.104;1.318;2023-03-13T04:14:49;98882.52;;;10.65;72.41
47706;BME280;33471;52.104;1.318;2023-03-13T04:17:21;98877.90;;;10.47;73.86
47706;BME280;33471;52.104;1.318;2023-03-13T04:19:49;98877.94;;;10.28;74.79
47706;BME280;33471;52.104;1.318;2023-03-13T04:22:15;98867.19;;;10.21;73.98
47706;BME280;33471;52.104;1.318;2023-03-13T04:24:42;98866.53;;;10.59;73.31
47706;BME280;33471;52.104;1.318;2023-03-13T04:27:09;98856.24;;;10.14;72.89
47706;BME280;33471;52.104;1.318;2023-03-13T04:29:37;98860.84;;;11.12;71.48
47706;BME280;33471;52.104;1.318;2023-03-13T04:32:04;98855.67;;;10.11;73.83
47706;BME280;33471;52.104;1.318;2023-03-13T04:34:32;98838.44;;;11.14;70.19
47706;BME280;33471;52.104;1.318;2023-03-13T04:37:00;98842.24;;;11.43;69.36
47706;BME280;33471;52.104;1.318;2023-03-13T04:39:27;98852.81;;;10.98;68.88
47706;BME280;33471;52.104;1.318;2023-03-13T04:41:55;98841.48;;;10.96;69.36
47706;BME280;33471;52.104;1.318;2023-03-13T04:44:22;98831.53;;;11.39;68.43
47706;BME280;33471;52.104;1.318;2023-03-13T04:46:50;98833.52;;;11.50;68.03
47706;BME280;33471;52.104;1.318;2023-03-13T04:49:17;98829.44;;;11.07;69.43
47706;BME280;33471;52.104;1.318;2023-03-13T04:51:45;98833.95;;;11.18;67.95
47706;BME280;33471;52.104;1.318;2023-03-13T04:54:12;98833.25;;;11.32;67.89
47706;BME280;33471;52.104;1.318;2023-03-13T04:56:40;98822.59;;;11.47;67.96
47706;BME280;33471;52.104;1.318;2023-03-13T04:59:07;98829.48;;;11.33;67.11
47706;BME280;33471;52.104;1.318;2023-03-13T05:01:35;98827.25;;;12.34;64.15
47706;BME280;33471;52.104;1.318;2023-03-13T05:04:03;98826.61;;;12.19;63.90
47706;BME280;33471;52.104;1.318;2023-03-13T05:06:30;98840.84;;;11.37;66.61
47706;BME280;33471;52.104;1.318;2023-03-13T05:08:57;98840.82;;;11.32;67.78
47706;BME280;33471;52.104;1.318;2023-03-13T05:11:24;98840.90;;;10.45;70.88
47706;BME280;33471;52.104;1.318;2023-03-13T05:13:51;98831.24;;;11.68;66.93
47706;BME280;33471;52.104;1.318;2023-03-13T05:16:19;98831.90;;;10.96;67.35
47706;BME280;33471;52.104;1.318;2023-03-13T05:18:46;98827.48;;;10.81;69.15
47706;BME280;33471;52.104;1.318;2023-03-13T05:21:13;98820.94;;;10.77;69.74
47706;BME280;33471;52.104;1.318;2023-03-13T05:23:40;98799.78;;;10.46;69.47
47706;BME280;33471;52.104;1.318;2023-03-13T05:26:07;98793.91;;;10.65;67.37
47706;BME280;33471;52.104;1.318;2023-03-13T05:28:34;98784.32;;;11.37;67.41
47706;BME280;33471;52.104;1.318;2023-03-13T05:31:01;98788.95;;;10.87;67.19
47706;BME280;33471;52.104;1.318;2023-03-13T05:33:29;98790.42;;;10.15;69.95
47706;BME280;33471;52.104;1.318;2023-03-13T05:35:56;98785.26;;;10.57;67.29
47706;BME280;33471;52.104;1.318;2023-03-13T05:38:23;98759.07;;;10.41;68.05
47706;BME280;33471;52.104;1.318;2023-03-13T05:40:50;98772.11;;;10.34;68.27
47706;BME280;33471;52.104;1.318;2023-03-13T05:43:17;98770.48;;;10.49;66.15
47706;BME280;33471;52.104;1.318;2023-03-13T05:45:44;98779.41;;;11.06;64.53
47706;BME280;33471;52.104;1.318;2023-03-13T05:48:11;98783.16;;;9.99;66.50
47706;BME280;33471;52.104;1.318;2023-03-13T05:50:38;98777.23;;;10.76;65.77
47706;BME280;33471;52.104;1.318;2023-03-13T05:53:05;98776.95;;;10.12;66.09
47706;BME280;33471;52.104;1.318;2023-03-13T05:55:32;98775.97;;;10.39;65.33
47706;BME280;33471;52.104;1.318;2023-03-13T05:57:59;98781.54;;;10.83;64.02
47706;BME280;33471;52.104;1.318;2023-03-13T06:00:27;98783.88;;;11.00;63.80
47706;BME280;33471;52.104;1.318;2023-03-13T06:02:53;98772.93;;;11.05;63.54
47706;BME280;33471;52.104;1.318;2023-03-13T06:05:21;98777.44;;;11.08;63.51
47706;BME280;33471;52.104;1.318;2023-03-13T06:07:48;98772.46;;;10.91;64.42
47706;BME280;33471;52.104;1.318;2023-03-13T06:10:15;98764.15;;;10.77;65.74
47706;BME280;33471;52.104;1.318;2023-03-13T06:12:42;98759.59;;;10.70;67.15
47706;BME280;33471;52.104;1.318;2023-03-13T06:15:10;98753.72;;;11.16;63.00
47706;BME280;33471;52.104;1.318;2023-03-13T06:17:37;98742.35;;;11.53;62.63
47706;BME280;33471;52.104;1.318;2023-03-13T06:20:06;98763.44;;;11.26;63.89
47706;BME280;33471;52.104;1.318;2023-03-13T06:22:33;98765.50;;;11.40;64.33
47706;BME280;33471;52.104;1.318;2023-03-13T06:25:00;98773.23;;;11.24;64.23
47706;BME280;33471;52.104;1.318;2023-03-13T06:27:27;98772.02;;;11.12;63.89
47706;BME280;33471;52.104;1.318;2023-03-13T06:29:53;98762.53;;;11.08;64.29
47706;BME280;33471;52.104;1.318;2023-03-13T06:32:20;98762.75;;;10.54;65.52
47706;BME280;33471;52.104;1.318;2023-03-13T06:34:47;98776.73;;;10.74;64.74
47706;BME280;33471;52.104;1.318;2023-03-13T06:37:14;98774.73;;;10.13;65.64
47706;BME280;33471;52.104;1.318;2023-03-13T06:39:42;98767.64;;;10.92;63.57
47706;BME280;33471;52.104;1.318;2023-03-13T06:42:09;98772.31;;;10.43;63.08
47706;BME280;33471;52.104;1.318;2023-03-13T06:44:36;98767.93;;;10.61;63.86
47706;BME280;33471;52.104;1.318;2023-03-13T06:47:05;98753.74;;;10.66;63.34
47706;BME280;33471;52.104;1.318;2023-03-13T06:49:32;98763.43;;;10.30;63.83
47706;BME280;33471;52.104;1.318;2023-03-13T06:51:59;98768.07;;;10.37;63.23
47706;BME280;33471;52.104;1.318;2023-03-13T06:54:26;98767.02;;;10.38;63.20
47706;BME280;33471;52.104;1.318;2023-03-13T06:56:54;98770.39;;;10.31;63.29
47706;BME280;33471;52.104;1.318;2023-03-13T06:59:21;98777.39;;;10.79;60.80
47706;BME280;33471;52.104;1.318;2023-03-13T07:01:49;98777.57;;;10.81;60.80
47706;BME280;33471;52.104;1.318;2023-03-13T07:04:16;98764.68;;;10.58;60.67
47706;BME280;33471;52.104;1.318;2023-03-13T07:06:42;98781.83;;;10.94;60.38
47706;BME280;33471;52.104;1.318;2023-03-13T07:09:10;98767.53;;;10.55;60.76
47706;BME280;33471;52.104;1.318;2023-03-13T07:11:37;98771.34;;;11.17;59.17
47706;BME280;33471;52.104;1.318;2023-03-13T07:14:06;98765.66;;;11.65;59.05
47706;BME280;33471;52.104;1.318;2023-03-13T07:16:33;98765.03;;;11.70;58.90
47706;BME280;33471;52.104;1.318;2023-03-13T07:19:00;98770.07;;;11.48;60.54
47706;BME280;33471;52.104;1.318;2023-03-13T07:21:27;98761.65;;;11.30;61.63
47706;BME280;33471;52.104;1.318;2023-03-13T07:23:55;98751.48;;;10.73;64.24
47706;BME280;33471;52.104;1.318;2023-03-13T07:26:23;98734.97;;;10.98;63.43
47706;BME280;33471;52.104;1.318;2023-03-13T07:28:49;98740.92;;;10.66;64.40
47706;BME280;33471;52.104;1.318;2023-03-13T07:31:18;98731.64;;;11.07;62.67
47706;BME280;33471;52.104;1.318;2023-03-13T07:33:46;98738.05;;;11.04;63.67
47706;BME280;33471;52.104;1.318;2023-03-13T07:36:15;98735.95;;;10.72;63.62
47706;BME280;33471;52.104;1.318;2023-03-13T07:38:42;98738.71;;;10.61;64.59
47706;BME280;33471;52.104;1.318;2023-03-13T07:41:13;98727.88;;;10.64;63.33
47706;BME280;33471;52.104;1.318;2023-03-13T07:43:40;98719.32;;;10.91;64.01
47706;BME280;33471;52.104;1.318;2023-03-13T07:46:11;98723.14;;;10.47;63.72
47706;BME280;33471;52.104;1.318;2023-03-13T07:48:39;98721.94;;;11.19;62.51
47706;BME280;33471;52.104;1.318;2023-03-13T07:51:10;98703.60;;;10.79;61.63
47706;BME280;33471;52.104;1.318;2023-03-13T07:53:38;98698.42;;;10.89;61.88
47706;BME280;33471;52.104;1.318;2023-03-13T07:56:09;98702.80;;;11.30;61.21
47706;BME280;33471;52.104;1.318;2023-03-13T07:58:38;98681.41;;;11.53;60.65
47706;BME280;33471;52.104;1.318;2023-03-13T08:01:09;98677.23;;;11.77;59.06
47706;BME280;33471;52.104;1.318;2023-03-13T08:03:37;98671.23;;;11.91;57.97
47706;BME280;33471;52.104;1.318;2023-03-13T08:06:07;98659.81;;;11.61;57.86
47706;BME280;33471;52.104;1.318;2023-03-13T08:08:35;98673.88;;;11.49;59.61
47706;BME280;33471;52.104;1.318;2023-03-13T08:11:04;98681.09;;;11.56;59.57
47706;BME280;33471;52.104;1.318;2023-03-13T08:13:32;98654.16;;;10.90;60.56
47706;BME280;33471;52.104;1.318;2023-03-13T08:16:03;98661.29;;;11.20;58.61
47706;BME280;33471;52.104;1.318;2023-03-13T08:18:30;98647.30;;;11.48;57.38
47706;BME280;33471;52.104;1.318;2023-03-13T08:21:00;98644.84;;;11.84;56.81
47706;BME280;33471;52.104;1.318;2023-03-13T08:23:28;98637.80;;;11.66;57.45
47706;BME280;33471;52.104;1.318;2023-03-13T08:26:00;98642.39;;;11.26;58.99
47706;BME280;33471;52.104;1.318;2023-03-13T08:28:28;98641.94;;;10.97;58.87
47706;BME280;33471;52.104;1.318;2023-03-13T08:30:55;98643.06;;;11.39;58.13
47706;BME280;33471;52.104;1.318;2023-03-13T08:33:22;98648.10;;;10.61;59.11
47706;BME280;33471;52.104;1.318;2023-03-13T08:35:49;98636.80;;;11.04;58.23
47706;BME280;33471;52.104;1.318;2023-03-13T08:38:16;98639.12;;;11.49;57.40
47706;BME280;33471;52.104;1.318;2023-03-13T08:40:43;98633.88;;;11.12;57.63
47706;BME280;33471;52.104;1.318;2023-03-13T08:43:09;98619.79;;;11.74;56.19
47706;BME280;33471;52.104;1.318;2023-03-13T08:45:36;98643.90;;;10.93;56.75
47706;BME280;33471;52.104;1.318;2023-03-13T08:48:04;98634.10;;;11.97;55.61
47706;BME280;33471;52.104;1.318;2023-03-13T08:50:31;98632.44;;;12.00;55.13
47706;BME280;33471;52.104;1.318;2023-03-13T08:52:59;98636.69;;;11.88;54.57
47706;BME280;33471;52.104;1.318;2023-03-13T08:55:26;98644.08;;;12.20;53.18
47706;BME280;33471;52.104;1.318;2023-03-13T08:57:53;98636.06;;;11.56;55.22
47706;BME280;33471;52.104;1.318;2023-03-13T09:00:20;98643.23;;;11.72;54.97
47706;BME280;33471;52.104;1.318;2023-03-13T09:02:48;98630.58;;;11.49;55.05
47706;BME280;33471;52.104;1.318;2023-03-13T09:05:15;98640.50;;;11.24;55.19
47706;BME280;33471;52.104;1.318;2023-03-13T09:07:42;98626.87;;;11.74;53.66
47706;BME280;33471;52.104;1.318;2023-03-13T09:10:10;98628.33;;;11.53;54.10
47706;BME280;33471;52.104;1.318;2023-03-13T09:12:37;98605.25;;;11.80;54.21
47706;BME280;33471;52.104;1.318;2023-03-13T09:15:06;98621.15;;;11.69;54.54
47706;BME280;33471;52.104;1.318;2023-03-13T09:17:33;98627.67;;;11.26;55.39
47706;BME280;33471;52.104;1.318;2023-03-13T09:20:01;98627.54;;;11.49;55.89
47706;BME280;33471;52.104;1.318;2023-03-13T09:22:28;98624.84;;;11.64;55.94
47706;BME280;33471;52.104;1.318;2023-03-13T09:24:55;98610.10;;;11.80;54.97
47706;BME280;33471;52.104;1.318;2023-03-13T09:27:22;98606.62;;;11.08;56.67
47706;BME280;33471;52.104;1.318;2023-03-13T09:29:50;98604.61;;;10.83;56.51
47706;BME280;33471;52.104;1.318;2023-03-13T09:32:16;98589.12;;;11.25;55.54
47706;BME280;33471;52.104;1.318;2023-03-13T09:34:43;98609.04;;;11.39;55.64
47706;BME280;33471;52.104;1.318;2023-03-13T09:37:11;98593.42;;;11.10;56.04
47706;BME280;33471;52.104;1.318;2023-03-13T09:39:38;98597.38;;;11.16;56.72
47706;BME280;33471;52.104;1.318;2023-03-13T09:42:12;98596.42;;;11.08;56.81
47706;BME280;33471;52.104;1.318;2023-03-13T09:44:45;98587.11;;;11.69;55.27
47706;BME280;33471;52.104;1.318;2023-03-13T09:47:20;98607.81;;;11.14;55.68
47706;BME280;33471;52.104;1.318;2023-03-13T09:49:53;98575.87;;;11.70;54.38
47706;BME280;33471;52.104;1.318;2023-03-13T09:52:25;98587.77;;;11.46;55.89
47706;BME280;33471;52.104;1.318;2023-03-13T09:54:57;98574.51;;;11.72;55.71
47706;BME280;33471;52.104;1.318;2023-03-13T09:57:31;98585.22;;;11.48;55.96
47706;BME280;33471;52.104;1.318;2023-03-13T10:00:02;98586.52;;;11.18;56.37
47706;BME280;33471;52.104;1.318;2023-03-13T10:02:33;98574.50;;;11.61;56.03
47706;BME280;33471;52.104;1.318;2023-03-13T10:05:07;98564.65;;;11.47;55.58
47706;BME280;33471;52.104;1.318;2023-03-13T10:07:36;98574.45;;;12.05;53.51
47706;BME280;33471;52.104;1.318;2023-03-13T10:10:09;98573.18;;;12.06;52.96
47706;BME280;33471;52.104;1.318;2023-03-13T10:12:43;98573.21;;;11.91;53.83
47706;BME280;33471;52.104;1.318;2023-03-13T10:15:24;98577.70;;;11.79;52.38
47706;BME280;33471;52.104;1.318;2023-03-13T10:17:57;98579.15;;;12.35;51.66
47706;BME280;33471;52.104;1.318;2023-03-13T10:20:27;98595.48;;;11.99;51.84
47706;BME280;33471;52.104;1.318;2023-03-13T10:22:58;98585.77;;;11.91;52.58
47706;BME280;33471;52.104;1.318;2023-03-13T10:25:30;98597.36;;;11.85;52.42
47706;BME280;33471;52.104;1.318;2023-03-13T10:27:59;98599.24;;;12.89;52.08
47706;BME280;33471;52.104;1.318;2023-03-13T10:30:28;98589.97;;;12.09;51.27
47706;BME280;33471;52.104;1.318;2023-03-13T10:32:58;98573.35;;;12.18;51.28
47706;BME280;33471;52.104;1.318;2023-03-13T10:35:32;98571.51;;;11.63;52.72
47706;BME280;33471;52.104;1.318;2023-03-13T10:38:04;98567.89;;;11.31;53.91
47706;BME280;33471;52.104;1.318;2023-03-13T10:40:31;98551.87;;;11.52;53.78
47706;BME280;33471;52.104;1.318;2023-03-13T10:43:01;98576.55;;;11.60;53.95
47706;BME280;33471;52.104;1.318;2023-03-13T10:45:33;98558.78;;;11.72;52.43
47706;BME280;33471;52.104;1.318;2023-03-13T10:48:03;98561.64;;;12.25;51.36
47706;BME280;33471;52.104;1.318;2023-03-13T10:50:33;98548.45;;;12.83;51.02
47706;BME280;33471;52.104;1.318;2023-03-13T10:53:20;98564.04;;;12.30;51.13
47706;BME280;33471;52.104;1.318;2023-03-13T10:55:47;98554.93;;;12.25;51.26
47706;BME280;33471;52.104;1.318;2023-03-13T10:58:19;98582.22;;;11.74;51.92
47706;BME280;33471;52.104;1.318;2023-03-13T11:00:48;98564.34;;;11.55;52.24
47706;BME280;33471;52.104;1.318;2023-03-13T11:03:18;98565.30;;;11.93;51.75
47706;BME280;33471;52.104;1.318;2023-03-13T11:05:55;98547.22;;;11.51;51.23
47706;BME280;33471;52.104;1.318;2023-03-13T11:08:25;98568.63;;;11.52;50.56
47706;BME280;33471;52.104;1.318;2023-03-13T11:10:56;98535.09;;;12.54;48.70
47706;BME280;33471;52.104;1.318;2023-03-13T11:13:28;98560.84;;;12.65;48.69
47706;BME280;33471;52.104;1.318;2023-03-13T11:15:59;98567.18;;;12.52;48.43
47706;BME280;33471;52.104;1.318;2023-03-13T11:18:34;98552.44;;;12.40;48.29
47706;BME280;33471;52.104;1.318;2023-03-13T11:21:03;98546.14;;;12.11;48.93
47706;BME280;33471;52.104;1.318;2023-03-13T11:23:36;98544.83;;;11.90;49.83
47706;BME280;33471;52.104;1.318;2023-03-13T11:26:10;98539.71;;;11.74;50.09
47706;BME280;33471;52.104;1.318;2023-03-13T11:28:48;98559.02;;;12.25;49.84
47706;BME280;33471;52.104;1.318;2023-03-13T11:31:22;98541.60;;;12.92;48.71
47706;BME280;33471;52.104;1.318;2023-03-13T11:33:55;98536.24;;;13.07;47.98
47706;BME280;33471;52.104;1.318;2023-03-13T11:36:32;98550.27;;;13.01;47.12
47706;BME280;33471;52.104;1.318;2023-03-13T11:39:10;98535.91;;;12.25;48.46
47706;BME280;33471;52.104;1.318;2023-03-13T11:41:51;98526.56;;;12.30;48.51
47706;BME280;33471;52.104;1.318;2023-03-13T11:44:29;98555.33;;;12.44;47.57
47706;BME280;33471;52.104;1.318;2023-03-13T11:47:12;98554.46;;;12.22;48.30
47706;BME280;33471;52.104;1.318;2023-03-13T11:49:54;98534.88;;;12.41;49.45
47706;BME280;33471;52.104;1.318;2023-03-13T11:52:34;98537.32;;;12.79;46.80
47706;BME280;33471;52.104;1.318;2023-03-13T11:55:28;98554.81;;;12.99;47.13
47706;BME280;33471;52.104;1.318;2023-03-13T11:58:10;98555.78;;;12.71;47.40
47706;BME280;33471;52.104;1.318;2023-03-13T12:00:43;98541.90;;;12.45;46.94
47706;BME280;33471;52.104;1.318;2023-03-13T12:03:15;98535.35;;;13.21;46.82
47706;BME280;33471;52.104;1.318;2023-03-13T12:05:48;98571.84;;;13.08;46.56
47706;BME280;33471;52.104;1.318;2023-03-13T12:08:19;98542.21;;;12.97;46.09
47706;BME280;33471;52.104;1.318;2023-03-13T12:10:53;98539.99;;;13.34;46.54
47706;BME280;33471;52.104;1.318;2023-03-13T12:13:29;98568.90;;;13.20;46.40
47706;BME280;33471;52.104;1.318;2023-03-13T12:16:00;98532.96;;;13.43;45.96
47706;BME280;33471;52.104;1.318;2023-03-13T12:18:34;98562.52;;;13.19;46.04
47706;BME280;33471;52.104;1.318;2023-03-13T12:21:06;98546.12;;;13.23;46.40
47706;BME280;33471;52.104;1.318;2023-03-13T12:23:45;98536.65;;;13.42;45.17
47706;BME280;33471;52.104;1.318;2023-03-13T12:26:17;98525.27;;;12.95;45.50
47706;BME280;33471;52.104;1.318;2023-03-13T12:28:50;98517.55;;;12.90;46.25
47706;BME280;33471;52.104;1.318;2023-03-13T12:31:27;98530.50;;;12.48;46.87
47706;BME280;33471;52.104;1.318;2023-03-13T12:34:02;98523.92;;;12.95;46.64
47706;BME280;33471;52.104;1.318;2023-03-13T12:36:37;98517.76;;;13.00;45.25
47706;BME280;33471;52.104;1.318;2023-03-13T12:39:21;98529.59;;;12.74;45.50
47706;BME280;33471;52.104;1.318;2023-03-13T12:41:59;98514.13;;;13.00;45.43
47706;BME280;33471;52.104;1.318;2023-03-13T12:44:29;98519.95;;;13.14;44.27
47706;BME280;33471;52.104;1.318;2023-03-13T12:47:06;98515.05;;;13.07;44.84
47706;BME280;33471;52.104;1.318;2023-03-13T12:49:52;98501.64;;;13.09;45.07
47706;BME280;33471;52.104;1.318;2023-03-13T12:52:39;98527.47;;;12.90;45.70
47706;BME280;33471;52.104;1.318;2023-03-13T12:55:37;98487.84;;;12.83;45.32
47706;BME280;33471;52.104;1.318;2023-03-13T12:58:18;98491.72;;;12.63;45.45
47706;BME280;33471;52.104;1.318;2023-03-13T13:00:49;98512.04;;;12.82;45.46
47706;BME280;33471;52.104;1.318;2023-03-13T13:03:25;98504.04;;;13.01;44.58
47706;BME280;33471;52.104;1.318;2023-03-13T13:06:04;98501.83;;;13.09;45.10
47706;BME280;33471;52.104;1.318;2023-03-13T13:08:36;98503.70;;;12.34;46.15
47706;BME280;33471;52.104;1.318;2023-03-13T13:11:48;98516.09;;;14.13;44.21
47706;BME280;33471;52.104;1.318;2023-03-13T13:14:59;98503.53;;;14.39;43.77